createdAt,value
2023-10-26T00:04:29.589Z,4173.8
2023-10-26T00:10:05.362Z,4175.9
2023-10-26T00:15:41.277Z,4175.1
2023-10-26T00:21:17.656Z,4175.6
2023-10-26T00:26:53.826Z,4175.8
2023-10-26T00:32:29.343Z,4174.4
2023-10-26T00:38:04.267Z,4174.3
2023-10-26T00:43:39.655Z,4178
2023-10-26T00:49:16.030Z,4171.6
2023-10-26T00:54:51.650Z,4171.8
2023-10-26T01:00:27.555Z,4172.1
2023-10-26T01:06:05.832Z,4172.8
2023-10-26T01:11:42.517Z,4176.6
2023-10-26T01:17:18.876Z,4172.1
2023-10-26T01:22:54.684Z,4173.8
2023-10-26T01:28:30.208Z,4173.8
2023-10-26T01:34:06.499Z,4172.1
2023-10-26T01:39:41.683Z,4170.6
2023-10-26T01:45:17.465Z,4173.1
2023-10-26T01:50:53.332Z,4170.4
2023-10-26T01:56:29.626Z,4172.3
2023-10-26T02:02:05.979Z,4168.7
2023-10-26T02:07:41.922Z,4168.6
2023-10-26T02:13:17.884Z,4170.6
2023-10-26T02:18:53.893Z,4166.7
2023-10-26T02:24:30.145Z,4169.2
2023-10-26T02:30:05.729Z,4171.8
2023-10-26T02:35:41.649Z,4171.8
2023-10-26T02:41:16.800Z,4169.9
2023-10-26T02:46:52.667Z,4169.7
2023-10-26T02:52:28.249Z,4169.6
2023-10-26T02:58:04.458Z,4169.9
2023-10-26T03:03:40.917Z,4166.6
2023-10-26T03:09:16.960Z,4167.4
2023-10-26T03:14:52.721Z,4167.4
2023-10-26T03:20:28.640Z,4167.2
2023-10-26T03:26:04.566Z,4164
2023-10-26T03:31:39.810Z,4167.2
2023-10-26T03:37:15.931Z,4167.7
2023-10-26T03:42:51.187Z,4167.1
2023-10-26T03:48:26.699Z,4166.6
2023-10-26T03:54:02.928Z,4165.4
2023-10-26T03:59:38.281Z,4166.1
2023-10-26T04:05:13.473Z,4165.1
2023-10-26T04:10:49.425Z,4165.2
2023-10-26T04:16:25.184Z,4164.9
2023-10-26T04:22:00.676Z,4165.9
2023-10-26T04:27:36.794Z,4165.4
2023-10-26T04:33:13.293Z,4165.9
2023-10-26T04:38:48.273Z,4162.2
2023-10-26T04:44:24.272Z,4161.9
2023-10-26T04:49:59.674Z,4161.4
2023-10-26T04:55:35.873Z,4163
2023-10-26T05:01:11.431Z,4161.5
2023-10-26T05:06:47.153Z,4162
2023-10-26T05:12:22.873Z,4163.2
2023-10-26T05:17:59.365Z,4159.7
2023-10-26T05:23:34.715Z,4161.7
2023-10-26T05:29:09.913Z,4161.7
2023-10-26T05:34:46.307Z,4160
2023-10-26T05:40:21.381Z,4162.2
2023-10-26T05:45:57.411Z,4159.9
2023-10-26T05:51:32.934Z,4159.2
2023-10-26T05:57:09.322Z,4159.2
2023-10-26T06:02:45.062Z,4159.2
2023-10-26T06:08:20.027Z,4158.2
2023-10-26T06:13:55.348Z,4157.2
2023-10-26T06:19:30.448Z,4156.8
2023-10-26T06:25:06.123Z,4158.9
2023-10-26T06:30:41.997Z,4158.4
2023-10-26T06:36:17.942Z,4158.9
2023-10-26T06:41:53.448Z,4155.2
2023-10-26T06:47:29.109Z,4154.7
2023-10-26T06:53:04.357Z,4155.7
2023-10-26T06:58:39.957Z,4156.3
2023-10-26T07:04:16.995Z,4154.7
2023-10-26T07:09:52.259Z,4154.7
2023-10-26T07:15:28.022Z,4153.5
2023-10-26T07:21:04.143Z,4154.8
2023-10-26T07:26:39.294Z,4154.8
2023-10-26T07:32:15.447Z,4154.3
2023-10-26T07:38:38.608Z,4153.2
2023-10-26T07:44:14.824Z,4154.5
2023-10-26T07:49:50.078Z,4153.5
2023-10-26T07:55:25.813Z,4153
2023-10-26T08:01:01.603Z,4152.2
2023-10-26T08:06:37.382Z,4153.2
2023-10-26T08:12:12.466Z,4153.5
2023-10-26T08:17:49.990Z,4151.8
2023-10-26T08:23:25.747Z,4155.2
2023-10-26T08:29:29.982Z,4151.5
2023-10-26T08:35:06.156Z,4158.9
2023-10-26T08:40:43.178Z,4157
2023-10-26T08:46:19.237Z,4153.3
2023-10-26T08:51:54.713Z,4153.5
2023-10-26T08:57:30.197Z,4156
2023-10-26T09:03:10.656Z,4152.2
2023-10-26T09:08:47.132Z,4153.7
2023-10-26T09:14:22.447Z,4151.8
2023-10-26T09:19:58.457Z,4152.2
2023-10-26T09:25:34.307Z,4153.5
2023-10-26T09:31:10.801Z,4159.5
2023-10-26T09:36:45.925Z,4154.5
2023-10-26T09:42:21.356Z,4156.3
2023-10-26T09:47:58.569Z,4152.3
2023-10-26T09:53:34.531Z,4153
2023-10-26T09:59:10.656Z,4159
2023-10-26T10:04:51.523Z,4159
2023-10-26T10:10:27.930Z,4165.4
2023-10-26T10:16:04.035Z,4158.2
2023-10-26T10:21:40.181Z,4160.2
2023-10-26T10:27:15.970Z,4167.1
2023-10-26T10:32:53.190Z,4163.2
2023-10-26T10:38:28.913Z,4166.1
2023-10-26T10:44:04.310Z,4176.3
2023-10-26T10:49:40.701Z,4168.4
2023-10-26T10:55:16.281Z,4165.1
2023-10-26T11:00:52.374Z,4164.7
2023-10-26T11:06:28.063Z,4182
2023-10-26T11:12:04.642Z,4180.3
2023-10-26T11:17:40.372Z,4176.8
2023-10-26T11:23:17.007Z,4175.3
2023-10-26T11:28:53.531Z,4178.6
2023-10-26T11:34:29.696Z,4210.3
2023-10-26T11:40:05.076Z,4188
2023-10-26T11:45:41.562Z,4182.1
2023-10-26T11:51:17.371Z,4183
2023-10-26T11:56:52.890Z,4191.2
2023-10-26T12:02:30.057Z,4188
2023-10-26T12:08:06.614Z,4207.3
2023-10-26T12:13:42.566Z,4193.7
2023-10-26T12:19:18.784Z,4185.2
2023-10-26T12:24:54.440Z,4181
2023-10-26T12:30:31.322Z,4186.5
2023-10-26T12:36:07.397Z,4188.7
2023-10-26T12:41:42.653Z,4185.3
2023-10-26T12:47:18.249Z,4191.5
2023-10-26T12:52:54.453Z,4191.7
2023-10-26T12:58:30.924Z,4190.5
2023-10-26T13:04:07.144Z,4189.5
2023-10-26T13:09:45.754Z,4186
2023-10-26T13:15:22.827Z,4187.8
2023-10-26T13:20:59.987Z,4190
2023-10-26T13:26:36.288Z,4193.7
2023-10-26T13:32:11.716Z,4189.8
2023-10-26T13:37:47.257Z,4188.2
2023-10-26T13:43:23.602Z,4189.5
2023-10-26T13:48:59.961Z,4190.5
2023-10-26T13:54:35.979Z,4190.5
2023-10-26T14:00:13.418Z,4191.7
2023-10-26T14:05:49.161Z,4192.2
2023-10-26T14:11:24.675Z,4191.5
2023-10-26T14:17:01.940Z,4193.2
2023-10-26T14:22:37.463Z,4194.2
2023-10-26T14:28:12.930Z,4188.3
2023-10-26T14:33:49.916Z,4192.5
2023-10-26T14:39:26.891Z,4191.7
2023-10-26T14:45:03.159Z,4188
2023-10-26T14:50:39.476Z,4183.8
2023-10-26T14:56:15.745Z,4182.3
2023-10-26T15:01:51.249Z,4184.5
2023-10-26T15:07:27.413Z,4189.3
2023-10-26T15:13:03.434Z,4189.2
2023-10-26T15:18:39.149Z,4187
2023-10-26T15:24:15.962Z,4181.8
2023-10-26T15:29:51.335Z,4180.8
2023-10-26T15:35:26.812Z,4177.6
2023-10-26T15:41:03.621Z,4183.6
2023-10-26T15:46:39.632Z,4179.1
2023-10-26T15:52:15.285Z,4177.8
2023-10-26T15:57:55.826Z,4174.3
2023-10-26T16:03:31.904Z,4177.6
2023-10-26T16:09:07.149Z,4179.8
2023-10-26T16:14:45.406Z,4182.1
2023-10-26T16:20:21.464Z,4176.8
2023-10-26T16:25:56.972Z,4174.4
2023-10-26T16:31:33.823Z,4174.1
2023-10-26T16:37:10.837Z,4174.6
2023-10-26T16:42:46.558Z,4173.6
2023-10-26T16:48:23.395Z,4175.4
2023-10-26T16:53:59.307Z,4175.6
2023-10-26T16:59:34.125Z,4174.8
2023-10-26T17:05:11.274Z,4177.6
2023-10-26T17:10:46.467Z,4172.1
2023-10-26T17:16:22.858Z,4175.9
2023-10-26T17:22:00.122Z,4174.6
2023-10-26T17:27:35.853Z,4168.9
2023-10-26T17:33:15.998Z,4171.1
2023-10-26T17:38:51.889Z,4170.4
2023-10-26T17:44:27.488Z,4176.3
2023-10-26T17:50:02.492Z,4173.1
2023-10-26T17:55:39.219Z,4174.4
2023-10-26T18:01:16.520Z,4171.8
2023-10-26T18:06:52.307Z,4170.2
2023-10-26T18:12:33.517Z,4170.1
2023-10-26T18:18:09.478Z,4170.7
2023-10-26T18:23:44.389Z,4171.4
2023-10-26T18:29:20.326Z,4172.3
2023-10-26T18:34:56.919Z,4172.9
2023-10-26T18:40:32.991Z,4167.7
2023-10-26T18:46:10.114Z,4168.6
2023-10-26T18:51:46.166Z,4170.1
2023-10-26T18:57:21.718Z,4172.9
2023-10-26T19:02:58.632Z,4169.6
2023-10-26T19:08:34.317Z,4169.9
2023-10-26T19:14:10.109Z,4170.9
2023-10-26T19:19:47.522Z,4167.6
2023-10-26T19:25:23.689Z,4170.7
2023-10-26T19:30:59.901Z,4165.2
2023-10-26T19:36:35.860Z,4168.2
2023-10-26T19:42:11.535Z,4167.6
2023-10-26T19:47:47.208Z,4166.7
2023-10-26T19:53:23.916Z,4168.7
2023-10-26T19:59:00.036Z,4167.4
2023-10-26T20:04:35.434Z,4168.6
2023-10-26T20:10:12.908Z,4164.7
2023-10-26T20:15:49.490Z,4164.7
2023-10-26T20:21:24.495Z,4167.4
2023-10-26T20:27:00.086Z,4165.4
2023-10-26T20:32:38.488Z,4165.7
2023-10-26T20:38:15.722Z,4167.2
2023-10-26T20:43:52.639Z,4166.4
2023-10-26T20:49:28.300Z,4164.6
2023-10-26T20:55:04.225Z,4162.4
2023-10-26T21:00:40.543Z,4164.6
2023-10-26T21:06:16.446Z,4163.5
2023-10-26T21:11:52.069Z,4162.4
2023-10-26T21:17:29.575Z,4162.4
2023-10-26T21:23:05.365Z,4161.9
2023-10-26T21:28:41.113Z,4162
2023-10-26T21:34:20.436Z,4160.7
2023-10-26T21:39:56.761Z,4160
2023-10-26T21:45:32.229Z,4159.5
2023-10-26T21:51:08.929Z,4159.2
2023-10-26T21:56:44.595Z,4159
2023-10-26T22:02:20.357Z,4158.5
2023-10-26T22:07:57.407Z,4158.2
2023-10-26T22:13:33.346Z,4159
2023-10-26T22:19:09.573Z,4157.2
2023-10-26T22:24:46.181Z,4157.7
2023-10-26T22:30:21.805Z,4160
2023-10-26T22:35:57.775Z,4156.3
2023-10-26T22:41:34.073Z,4156.3
2023-10-26T22:47:10.768Z,4159.4
2023-10-26T22:52:45.909Z,4155.2
2023-10-26T22:58:22.978Z,4156.2
2023-10-26T23:03:59.995Z,4155.3
2023-10-26T23:09:37.033Z,4155.8
2023-10-26T23:15:13.572Z,4154.5
2023-10-26T23:20:49.912Z,4155.2
2023-10-26T23:26:25.138Z,4155.8
2023-10-26T23:32:01.315Z,4156.7
2023-10-26T23:37:36.786Z,4155.2
2023-10-26T23:43:12.957Z,4155
2023-10-26T23:48:50.620Z,4155
2023-10-26T23:54:26.806Z,4150.8
